Terminal Aerodrome Forecast
Issued by NWS Portland, OR

Home | Current Version | Previous Version | Text Only | Print | Product List | Glossary On
Versions: 1 2 3 4 5 6 7 8 9 10 11 12 13 14 15 16 17 18 19 20 21 22 23 24 25 26 27 28 29 30
000
FTUS46 KPQR 202343
TAFTTD
TAF
KTTD 202343Z 2100/2124 20007KT P6SM -SHRA BKN035 OVC060
     FM210300 14004KT P6SM VCSH SCT035 BKN070
     FM211400 11004KT P6SM BKN060 BKN100
     FM212000 15008KT P6SM -RA OVC045=

USA.gov is the U.S. government's official web portal to all federal, state and local government web resources and services.